createdAt,value
2017-07-21T00:00:14.912Z,1014.71
2017-07-21T00:01:16.783Z,1014.76
2017-07-21T00:02:30.940Z,1014.76
2017-07-21T00:03:32.816Z,1014.75
2017-07-21T00:04:34.707Z,1014.76
2017-07-21T00:05:36.575Z,1014.76
2017-07-21T00:06:38.386Z,1014.78
2017-07-21T00:07:40.217Z,1014.84
2017-07-21T00:08:42.111Z,1014.85
2017-07-21T00:09:43.974Z,1014.87
2017-07-21T00:10:45.840Z,1014.87
2017-07-21T00:11:59.988Z,1014.84
2017-07-21T00:13:01.879Z,1014.85
2017-07-21T00:14:03.772Z,1014.84
2017-07-21T00:15:05.660Z,1014.83
2017-07-21T00:16:07.467Z,1014.86
2017-07-21T00:17:09.296Z,1014.88
2017-07-21T00:18:11.198Z,1014.93
2017-07-21T00:19:13.078Z,1014.91
2017-07-21T00:20:14.945Z,1014.89
2017-07-21T00:21:29.091Z,1014.89
2017-07-21T00:22:30.960Z,1014.90
2017-07-21T00:23:32.832Z,1014.88
2017-07-21T00:24:34.720Z,1014.93
2017-07-21T00:25:36.526Z,1014.94
2017-07-21T00:26:38.334Z,1014.94
2017-07-21T00:27:40.222Z,1014.91
2017-07-21T00:28:42.094Z,1014.94
2017-07-21T00:29:43.989Z,1014.94
2017-07-21T00:30:58.132Z,1014.95
2017-07-21T00:32:00.022Z,1014.95
2017-07-21T00:33:01.898Z,1014.94
2017-07-21T00:34:03.787Z,1014.96
2017-07-21T00:35:05.597Z,1014.95
2017-07-21T00:36:07.429Z,1014.94
2017-07-21T00:37:09.323Z,1014.93
2017-07-21T00:38:11.217Z,1014.93
2017-07-21T00:39:13.106Z,1014.97
2017-07-21T00:40:27.256Z,1015.01
2017-07-21T00:41:29.146Z,1015.02
2017-07-21T00:42:31.018Z,1015.02
2017-07-21T00:43:32.912Z,1015.02
2017-07-21T00:44:34.738Z,1015.03
2017-07-21T00:45:36.545Z,1015.04
2017-07-21T00:46:38.416Z,1015.08
2017-07-21T00:47:40.305Z,1015.05
2017-07-21T00:48:42.173Z,1015.08
2017-07-21T00:49:56.312Z,1015.09
2017-07-21T00:50:58.189Z,1015.05
2017-07-21T00:52:00.081Z,1015.05
2017-07-21T00:53:01.943Z,1015.05
2017-07-21T00:54:03.751Z,1015.06
2017-07-21T00:55:05.557Z,1015.03
2017-07-21T00:56:07.456Z,1015.04
2017-07-21T00:57:09.315Z,1015.01
2017-07-21T00:58:11.180Z,1015.04
2017-07-21T00:59:25.319Z,1015.01
2017-07-21T01:00:27.194Z,1015.05
2017-07-21T01:01:29.092Z,1015.05
2017-07-21T01:02:38.249Z,1015.08
2017-07-21T01:03:40.084Z,1015.09
2017-07-21T01:04:41.909Z,1015.08
2017-07-21T01:05:43.781Z,1015.04
2017-07-21T01:06:45.650Z,1015.02
2017-07-21T01:07:47.549Z,1015.06
2017-07-21T01:09:01.692Z,1015.06
2017-07-21T01:10:03.585Z,1015.03
2017-07-21T01:11:05.478Z,1015.06
2017-07-21T01:12:07.368Z,1015.04
2017-07-21T01:13:09.177Z,1015.06
2017-07-21T01:14:10.989Z,1015.08
2017-07-21T01:15:12.877Z,1015.05
2017-07-21T01:16:14.746Z,1015.04
2017-07-21T01:17:16.619Z,1015.09
2017-07-21T01:18:30.784Z,1015.05
2017-07-21T01:19:32.676Z,1015.07
2017-07-21T01:20:34.546Z,1015.09
2017-07-21T01:21:36.414Z,1015.08
2017-07-21T01:22:38.258Z,1015.07
2017-07-21T01:23:40.058Z,1015.07
2017-07-21T01:24:41.945Z,1015.05
2017-07-21T01:25:43.816Z,1015.08
2017-07-21T01:26:45.708Z,1015.08
2017-07-21T01:27:59.854Z,1015.08
2017-07-21T01:29:01.742Z,1015.07
2017-07-21T01:30:03.612Z,1015.09
2017-07-21T01:31:05.484Z,1015.08
2017-07-21T01:32:07.293Z,1015.06
2017-07-21T01:33:09.122Z,1015.10
2017-07-21T01:34:10.998Z,1015.11
2017-07-21T01:35:12.885Z,1015.08
2017-07-21T01:36:14.757Z,1015.13
2017-07-21T01:37:28.922Z,1015.08
2017-07-21T01:38:30.818Z,1015.10
2017-07-21T01:39:32.705Z,1015.06
2017-07-21T01:40:34.578Z,1015.05
2017-07-21T01:41:36.409Z,1015.09
2017-07-21T01:42:38.213Z,1015.08
2017-07-21T01:43:40.078Z,1015.09
2017-07-21T01:44:41.955Z,1015.03
2017-07-21T01:45:43.841Z,1015.02
2017-07-21T01:46:57.979Z,1014.98
2017-07-21T01:47:59.856Z,1014.99
2017-07-21T01:49:01.717Z,1014.98
2017-07-21T01:50:03.581Z,1014.92
2017-07-21T01:51:05.394Z,1014.98
2017-07-21T01:52:07.218Z,1014.98
2017-07-21T01:53:09.091Z,1014.96
2017-07-21T01:54:10.983Z,1014.93
2017-07-21T01:55:12.853Z,1014.96
2017-07-21T01:56:26.995Z,1014.95
2017-07-21T01:57:28.886Z,1014.92
2017-07-21T01:58:30.752Z,1014.95
2017-07-21T01:59:32.621Z,1014.93
2017-07-21T02:00:34.434Z,1015.02
2017-07-21T02:01:36.261Z,1014.98
2017-07-21T02:02:38.130Z,1014.96
2017-07-21T02:03:40.002Z,1014.98
2017-07-21T02:04:41.892Z,1014.95
2017-07-21T02:05:56.033Z,1014.94
2017-07-21T02:06:57.925Z,1014.95
2017-07-21T02:07:59.795Z,1014.94
2017-07-21T02:09:01.688Z,1014.90
2017-07-21T02:10:03.516Z,1014.89
2017-07-21T02:11:05.322Z,1014.88
2017-07-21T02:12:07.188Z,1014.90
2017-07-21T02:13:09.055Z,1014.90
2017-07-21T02:14:10.926Z,1014.91
2017-07-21T02:15:25.088Z,1014.88
2017-07-21T02:16:26.954Z,1014.90
2017-07-21T02:17:28.825Z,1014.88
2017-07-21T02:18:30.694Z,1014.88
2017-07-21T02:19:32.527Z,1014.84
2017-07-21T02:20:34.356Z,1014.85
2017-07-21T02:21:36.223Z,1014.84
2017-07-21T02:22:38.113Z,1014.85
2017-07-21T02:23:39.980Z,1014.88
2017-07-21T02:24:54.119Z,1014.88
2017-07-21T02:25:55.991Z,1014.84
2017-07-21T02:26:57.888Z,1014.89
2017-07-21T02:27:59.782Z,1014.89
2017-07-21T02:29:01.611Z,1014.89
2017-07-21T02:30:03.422Z,1014.87
2017-07-21T02:31:05.309Z,1014.87
2017-07-21T02:32:07.183Z,1014.86
2017-07-21T02:33:09.055Z,1014.87
2017-07-21T02:34:23.200Z,1014.86
2017-07-21T02:35:25.091Z,1014.83
2017-07-21T02:36:26.994Z,1014.85
2017-07-21T02:37:28.883Z,1014.86
2017-07-21T02:38:30.691Z,1014.83
2017-07-21T02:39:32.524Z,1014.87
2017-07-21T02:40:34.396Z,1014.82
2017-07-21T02:41:36.292Z,1014.86
2017-07-21T02:42:38.188Z,1014.78
2017-07-21T02:43:52.330Z,1014.80
2017-07-21T02:44:54.207Z,1014.79
2017-07-21T02:45:56.096Z,1014.78
2017-07-21T02:46:57.961Z,1014.80
2017-07-21T02:47:59.778Z,1014.79
2017-07-21T02:49:01.609Z,1014.82
2017-07-21T02:50:03.481Z,1014.85
2017-07-21T02:51:05.350Z,1014.87
2017-07-21T02:52:07.223Z,1014.85
2017-07-21T02:53:21.364Z,1014.83
2017-07-21T02:54:23.230Z,1014.87
2017-07-21T02:55:25.094Z,1014.85
2017-07-21T02:56:27.003Z,1014.88
2017-07-21T02:57:28.838Z,1014.90
2017-07-21T02:58:30.667Z,1014.87
2017-07-21T02:59:32.560Z,1014.90
2017-07-21T03:00:34.435Z,1014.89
2017-07-21T03:01:36.309Z,1014.92
2017-07-21T03:02:50.467Z,1014.91
2017-07-21T03:03:52.344Z,1014.93
2017-07-21T03:04:54.240Z,1014.88
2017-07-21T03:05:56.136Z,1014.91
2017-07-21T03:06:57.969Z,1014.85
2017-07-21T03:07:59.782Z,1014.87
2017-07-21T03:09:01.671Z,1014.87
2017-07-21T03:10:03.539Z,1014.90
2017-07-21T03:11:05.413Z,1014.90
2017-07-21T03:12:19.555Z,1014.92
2017-07-21T03:13:21.430Z,1014.96
2017-07-21T03:14:23.332Z,1014.96
2017-07-21T03:15:25.236Z,1014.97
2017-07-21T03:16:27.067Z,1014.98
2017-07-21T03:17:28.876Z,1015.01
2017-07-21T03:18:30.774Z,1015.00
2017-07-21T03:19:32.645Z,1014.99
2017-07-21T03:20:34.540Z,1014.97
2017-07-21T03:21:48.689Z,1014.99
2017-07-21T03:22:50.582Z,1015.00
2017-07-21T03:23:52.456Z,1014.98
2017-07-21T03:24:54.348Z,1015.02
2017-07-21T03:25:56.165Z,1015.03
2017-07-21T03:26:58.000Z,1015.02
2017-07-21T03:27:59.896Z,1015.05
2017-07-21T03:29:01.768Z,1015.06
2017-07-21T03:30:03.635Z,1015.06
2017-07-21T03:31:17.786Z,1015.04
2017-07-21T03:32:19.680Z,1015.06
2017-07-21T03:33:21.580Z,1015.08
2017-07-21T03:34:23.484Z,1015.10
2017-07-21T03:35:25.284Z,1015.10
2017-07-21T03:36:27.119Z,1015.08
2017-07-21T03:37:28.992Z,1015.09
2017-07-21T03:38:30.891Z,1015.10
2017-07-21T03:39:32.787Z,1015.07
2017-07-21T03:40:46.932Z,1015.09
2017-07-21T03:41:48.808Z,1015.11
2017-07-21T03:42:50.711Z,1015.13
2017-07-21T03:43:52.610Z,1015.12
2017-07-21T03:44:54.446Z,1015.15
2017-07-21T03:45:56.262Z,1015.16
2017-07-21T03:46:58.156Z,1015.16
2017-07-21T03:48:00.029Z,1015.23
2017-07-21T03:49:01.899Z,1015.24
2017-07-21T03:50:16.048Z,1015.23
2017-07-21T03:51:17.918Z,1015.20
2017-07-21T03:52:19.795Z,1015.23
2017-07-21T03:53:21.665Z,1015.22
2017-07-21T03:54:23.483Z,1015.26
2017-07-21T03:55:25.317Z,1015.27
2017-07-21T03:56:27.189Z,1015.26
2017-07-21T03:57:29.069Z,1015.25
2017-07-21T03:58:30.968Z,1015.24
2017-07-21T03:59:45.137Z,1015.24
2017-07-21T04:00:47.010Z,1015.29
2017-07-21T04:01:48.908Z,1015.27
2017-07-21T04:02:50.806Z,1015.27
2017-07-21T04:03:52.659Z,1015.27
2017-07-21T04:04:54.480Z,1015.26
2017-07-21T04:05:56.376Z,1015.29
2017-07-21T04:06:58.271Z,1015.28
2017-07-21T04:08:00.174Z,1015.30
2017-07-21T04:09:14.343Z,1015.32
2017-07-21T04:10:16.217Z,1015.32
2017-07-21T04:11:18.114Z,1015.37
2017-07-21T04:12:19.990Z,1015.37
2017-07-21T04:13:21.799Z,1015.38
2017-07-21T04:14:23.609Z,1015.40
2017-07-21T04:15:25.483Z,1015.43
2017-07-21T04:16:27.360Z,1015.43
2017-07-21T04:17:29.242Z,1015.43
2017-07-21T04:18:43.410Z,1015.42
2017-07-21T04:19:45.285Z,1015.45
2017-07-21T04:20:47.158Z,1015.42
2017-07-21T04:21:49.034Z,1015.45
2017-07-21T04:22:50.868Z,1015.41
2017-07-21T04:23:52.685Z,1015.45
2017-07-21T04:24:54.582Z,1015.44
2017-07-21T04:25:56.454Z,1015.44
2017-07-21T04:26:58.328Z,1015.44
2017-07-21T04:28:12.551Z,1015.47
2017-07-21T04:29:14.451Z,1015.48
2017-07-21T04:30:16.326Z,1015.51
2017-07-21T04:31:18.220Z,1015.52
2017-07-21T04:32:20.032Z,1015.48
2017-07-21T04:33:21.850Z,1015.50
2017-07-21T04:34:23.751Z,1015.49
2017-07-21T04:35:25.644Z,1015.52
2017-07-21T04:36:27.524Z,1015.51
2017-07-21T04:37:41.673Z,1015.53
2017-07-21T04:38:43.569Z,1015.50
2017-07-21T04:39:45.470Z,1015.47
2017-07-21T04:40:47.363Z,1015.53
2017-07-21T04:41:49.183Z,1015.51
2017-07-21T04:42:51.016Z,1015.52
2017-07-21T04:43:52.892Z,1015.52
2017-07-21T04:44:54.792Z,1015.57
2017-07-21T04:45:56.688Z,1015.60
2017-07-21T04:47:10.816Z,1015.60
2017-07-21T04:48:12.690Z,1015.62
2017-07-21T04:49:14.560Z,1015.66
2017-07-21T04:50:16.439Z,1015.66
2017-07-21T04:51:18.276Z,1015.66
2017-07-21T04:52:20.113Z,1015.69
2017-07-21T04:53:22.012Z,1015.63
2017-07-21T04:54:23.914Z,1015.66
2017-07-21T04:55:25.810Z,1015.66
2017-07-21T04:56:39.961Z,1015.73
2017-07-21T04:57:41.860Z,1015.68
2017-07-21T04:58:43.757Z,1015.72
2017-07-21T04:59:45.632Z,1015.75
2017-07-21T05:00:47.450Z,1015.80
2017-07-21T05:01:49.282Z,1015.78
2017-07-21T05:02:51.164Z,1015.80
2017-07-21T05:03:53.059Z,1015.81
2017-07-21T05:04:54.936Z,1015.83
2017-07-21T05:06:09.087Z,1015.85
2017-07-21T05:07:10.987Z,1015.85
2017-07-21T05:08:12.886Z,1015.86
2017-07-21T05:09:14.782Z,1015.86
2017-07-21T05:10:16.597Z,1015.91
2017-07-21T05:11:18.409Z,1015.93
2017-07-21T05:12:20.285Z,1015.94
2017-07-21T05:13:22.159Z,1015.91
2017-07-21T05:14:24.058Z,1015.93
2017-07-21T05:15:38.203Z,1015.92
2017-07-21T05:16:40.076Z,1015.96
2017-07-21T05:17:41.955Z,1015.99
2017-07-21T05:18:43.852Z,1015.97
2017-07-21T05:19:45.663Z,1016.01
2017-07-21T05:20:47.479Z,1016.03
2017-07-21T05:21:49.352Z,1016.05
2017-07-21T05:22:51.224Z,1016.02
2017-07-21T05:23:53.105Z,1016.05
2017-07-21T05:25:07.247Z,1016.05
2017-07-21T05:26:09.123Z,1016.04
2017-07-21T05:27:11.024Z,1016.08
2017-07-21T05:28:12.917Z,1016.12
2017-07-21T05:29:14.734Z,1016.11
2017-07-21T05:30:16.568Z,1016.13
2017-07-21T05:31:18.447Z,1016.16
2017-07-21T05:32:20.326Z,1016.23
2017-07-21T05:33:22.225Z,1016.23
2017-07-21T05:34:36.396Z,1016.28
2017-07-21T05:35:38.296Z,1016.27
2017-07-21T05:36:40.173Z,1016.30
2017-07-21T05:37:42.074Z,1016.28
2017-07-21T05:38:43.893Z,1016.31
2017-07-21T05:39:45.732Z,1016.27
2017-07-21T05:40:47.629Z,1016.29
2017-07-21T05:41:49.527Z,1016.31
2017-07-21T05:42:51.428Z,1016.31
2017-07-21T05:44:05.604Z,1016.39
2017-07-21T05:45:07.503Z,1016.36
2017-07-21T05:46:09.408Z,1016.40
2017-07-21T05:47:11.303Z,1016.40
2017-07-21T05:48:13.121Z,1016.41
2017-07-21T05:49:14.938Z,1016.43
2017-07-21T05:50:16.835Z,1016.43
2017-07-21T05:51:18.714Z,1016.44
2017-07-21T05:52:20.592Z,1016.44
2017-07-21T05:53:34.761Z,1016.47
2017-07-21T05:54:36.658Z,1016.47
2017-07-21T05:55:38.538Z,1016.50
2017-07-21T05:56:40.410Z,1016.43
2017-07-21T05:57:42.229Z,1016.51
2017-07-21T05:58:44.159Z,1016.53
2017-07-21T05:59:46.028Z,1016.51
2017-07-21T06:00:47.905Z,1016.55
2017-07-21T06:01:49.781Z,1016.51
2017-07-21T06:03:03.932Z,1016.55
2017-07-21T06:04:05.801Z,1016.56
2017-07-21T06:05:07.679Z,1016.57
2017-07-21T06:06:09.547Z,1016.59
2017-07-21T06:07:11.368Z,1016.53
2017-07-21T06:08:13.182Z,1016.58
2017-07-21T06:09:15.079Z,1016.56
2017-07-21T06:10:16.953Z,1016.60
2017-07-21T06:11:18.833Z,1016.59
2017-07-21T06:12:32.999Z,1016.63
2017-07-21T06:13:34.873Z,1016.67
2017-07-21T06:14:36.747Z,1016.69
2017-07-21T06:15:38.621Z,1016.70
2017-07-21T06:16:40.441Z,1016.68
2017-07-21T06:17:42.280Z,1016.73
2017-07-21T06:18:44.151Z,1016.72
2017-07-21T06:19:46.032Z,1016.71
2017-07-21T06:20:47.934Z,1016.69
2017-07-21T06:22:02.083Z,1016.70
2017-07-21T06:23:03.950Z,1016.73
2017-07-21T06:24:05.824Z,1016.74
2017-07-21T06:25:07.695Z,1016.72
2017-07-21T06:26:09.515Z,1016.73
2017-07-21T06:27:11.353Z,1016.71
2017-07-21T06:28:13.252Z,1016.73
2017-07-21T06:29:15.106Z,1016.76
2017-07-21T06:30:16.995Z,1016.80
2017-07-21T06:31:31.138Z,1016.80
2017-07-21T06:32:33.010Z,1016.81
2017-07-21T06:33:34.885Z,1016.84
2017-07-21T06:34:36.779Z,1016.83
2017-07-21T06:35:38.597Z,1016.81
2017-07-21T06:36:40.411Z,1016.83
2017-07-21T06:37:42.310Z,1016.85
2017-07-21T06:38:44.185Z,1016.84
2017-07-21T06:39:46.082Z,1016.80
2017-07-21T06:41:00.232Z,1016.79
2017-07-21T06:42:02.126Z,1016.80
2017-07-21T06:43:04.005Z,1016.81
2017-07-21T06:44:05.879Z,1016.82
2017-07-21T06:45:07.723Z,1016.88
2017-07-21T06:46:09.562Z,1016.90
2017-07-21T06:47:11.461Z,1016.93
2017-07-21T06:48:13.356Z,1016.91
2017-07-21T06:49:15.230Z,1016.90
2017-07-21T06:50:29.384Z,1016.91
2017-07-21T06:51:31.284Z,1016.92
2017-07-21T06:52:33.186Z,1016.98
2017-07-21T06:53:35.093Z,1016.97
2017-07-21T06:54:36.906Z,1016.99
2017-07-21T06:55:38.719Z,1017.00
2017-07-21T06:56:40.596Z,1016.99
2017-07-21T06:57:42.475Z,1017.02
2017-07-21T06:58:44.379Z,1017.05
2017-07-21T06:59:58.551Z,1017.01
2017-07-21T07:01:00.450Z,1017.00
2017-07-21T07:02:02.329Z,1017.01
2017-07-21T07:03:04.225Z,1017.00
2017-07-21T07:04:06.046Z,1017.04
2017-07-21T07:05:07.859Z,1017.05
2017-07-21T07:06:09.740Z,1017.05
2017-07-21T07:07:11.641Z,1017.09
2017-07-21T07:08:13.539Z,1017.10
2017-07-21T07:09:27.692Z,1017.10
2017-07-21T07:10:29.595Z,1017.10
2017-07-21T07:11:31.496Z,1017.15
2017-07-21T07:12:33.371Z,1017.20
2017-07-21T07:13:35.191Z,1017.27
2017-07-21T07:14:37.034Z,1017.31
2017-07-21T07:15:38.908Z,1017.27
2017-07-21T07:16:40.785Z,1017.30
2017-07-21T07:17:42.667Z,1017.26
2017-07-21T07:18:56.834Z,1017.32
2017-07-21T07:19:58.711Z,1017.31
2017-07-21T07:21:00.589Z,1017.31
2017-07-21T07:22:02.469Z,1017.32
2017-07-21T07:23:04.314Z,1017.32
2017-07-21T07:24:06.151Z,1017.35
2017-07-21T07:25:08.026Z,1017.39
2017-07-21T07:26:09.925Z,1017.35
2017-07-21T07:27:11.825Z,1017.35
2017-07-21T07:28:25.973Z,1017.29
2017-07-21T07:29:27.849Z,1017.34
2017-07-21T07:30:29.732Z,1017.35
2017-07-21T07:31:31.626Z,1017.35
2017-07-21T07:32:33.447Z,1017.38
2017-07-21T07:33:35.257Z,1017.39
2017-07-21T07:34:37.139Z,1017.41
2017-07-21T07:35:39.019Z,1017.43
2017-07-21T07:36:40.898Z,1017.40
2017-07-21T07:37:55.076Z,1017.39
2017-07-21T07:38:56.970Z,1017.47
2017-07-21T07:39:58.856Z,1017.46
2017-07-21T07:41:00.757Z,1017.50
2017-07-21T07:42:02.573Z,1017.51
2017-07-21T07:43:04.388Z,1017.54
2017-07-21T07:44:06.266Z,1017.56
2017-07-21T07:45:08.145Z,1017.56
2017-07-21T07:46:10.022Z,1017.55
2017-07-21T07:47:24.174Z,1017.49
2017-07-21T07:48:26.077Z,1017.45
2017-07-21T07:49:27.976Z,1017.44
2017-07-21T07:50:29.864Z,1017.45
2017-07-21T07:51:31.768Z,1017.46
2017-07-21T07:52:33.586Z,1017.47
2017-07-21T07:53:35.487Z,1017.45
2017-07-21T07:54:37.377Z,1017.49
2017-07-21T07:55:39.270Z,1017.43
2017-07-21T07:56:53.444Z,1017.48
2017-07-21T07:57:55.322Z,1017.45
2017-07-21T07:58:57.223Z,1017.43
2017-07-21T07:59:59.105Z,1017.45
2017-07-21T08:01:00.924Z,1017.40
2017-07-21T08:02:02.762Z,1017.42
2017-07-21T08:03:04.638Z,1017.45
2017-07-21T08:04:06.521Z,1017.37
2017-07-21T08:05:08.426Z,1017.38
2017-07-21T08:06:22.602Z,1017.39
2017-07-21T08:07:24.509Z,1017.38
2017-07-21T08:08:26.407Z,1017.38
2017-07-21T08:09:28.288Z,1017.39
2017-07-21T08:10:30.106Z,1017.39
2017-07-21T08:11:31.923Z,1017.37
2017-07-21T08:12:33.800Z,1017.39
2017-07-21T08:13:35.684Z,1017.40
2017-07-21T08:14:37.585Z,1017.43
2017-07-21T08:15:51.741Z,1017.42
2017-07-21T08:16:53.645Z,1017.39
2017-07-21T08:17:55.547Z,1017.34
2017-07-21T08:18:57.452Z,1017.34
2017-07-21T08:19:59.291Z,1017.27
2017-07-21T08:21:01.112Z,1017.31
2017-07-21T08:22:03.010Z,1017.30
2017-07-21T08:23:04.885Z,1017.31
2017-07-21T08:24:06.728Z,1017.32
2017-07-21T08:25:20.879Z,1017.33
2017-07-21T08:26:22.758Z,1017.36
2017-07-21T08:27:24.660Z,1017.34
2017-07-21T08:28:26.541Z,1017.35
2017-07-21T08:29:28.359Z,1017.35
2017-07-21T08:30:30.172Z,1017.38
2017-07-21T08:31:32.049Z,1017.37
2017-07-21T08:32:33.930Z,1017.37
2017-07-21T08:33:35.770Z,1017.33
2017-07-21T08:34:49.945Z,1017.34
2017-07-21T08:35:51.845Z,1017.33
2017-07-21T08:36:53.746Z,1017.33
2017-07-21T08:37:55.619Z,1017.36
2017-07-21T08:38:57.442Z,1017.41
2017-07-21T08:39:59.284Z,1017.44
2017-07-21T08:41:01.192Z,1017.47
2017-07-21T08:42:03.091Z,1017.51
2017-07-21T08:43:04.973Z,1017.51
2017-07-21T08:44:19.152Z,1017.56
2017-07-21T08:45:21.055Z,1017.56
2017-07-21T08:46:22.956Z,1017.63
2017-07-21T08:47:24.837Z,1017.64
2017-07-21T08:48:26.681Z,1017.67
2017-07-21T08:49:28.501Z,1017.71
2017-07-21T08:50:30.401Z,1017.75
2017-07-21T08:51:32.286Z,1017.76
2017-07-21T08:52:34.169Z,1017.76
2017-07-21T08:53:48.346Z,1017.74
2017-07-21T08:54:50.247Z,1017.75
2017-07-21T08:55:52.132Z,1017.70
2017-07-21T08:56:54.038Z,1017.65
2017-07-21T08:57:55.882Z,1017.48
2017-07-21T08:58:57.704Z,1017.50
2017-07-21T08:59:59.605Z,1017.46
2017-07-21T09:01:01.507Z,1017.43
2017-07-21T09:02:03.412Z,1017.41
2017-07-21T09:03:17.568Z,1017.48
2017-07-21T09:04:19.451Z,1017.44
2017-07-21T09:05:21.327Z,1017.40
2017-07-21T09:06:23.233Z,1017.43
2017-07-21T09:07:25.079Z,1017.46
2017-07-21T09:08:26.891Z,1017.45
2017-07-21T09:09:28.770Z,1017.50
2017-07-21T09:10:30.649Z,1017.53
2017-07-21T09:11:32.534Z,1017.50
2017-07-21T09:12:46.711Z,1017.51
2017-07-21T09:13:48.609Z,1017.55
2017-07-21T09:14:50.496Z,1017.57
2017-07-21T09:15:52.374Z,1017.60
2017-07-21T09:16:54.193Z,1017.63
2017-07-21T09:17:56.012Z,1017.66
2017-07-21T09:18:57.915Z,1017.68
2017-07-21T09:19:59.817Z,1017.68
2017-07-21T09:21:01.694Z,1017.71
2017-07-21T09:22:15.845Z,1017.72
2017-07-21T09:23:17.729Z,1017.78
2017-07-21T09:24:19.598Z,1017.72
2017-07-21T09:25:21.476Z,1017.75
2017-07-21T09:26:23.295Z,1017.81
2017-07-21T09:27:25.096Z,1017.81
2017-07-21T09:28:27.019Z,1017.84
2017-07-21T09:29:28.902Z,1017.82
2017-07-21T09:30:30.785Z,1017.87
2017-07-21T09:31:44.959Z,1017.78
2017-07-21T09:32:46.863Z,1017.82
2017-07-21T09:33:48.745Z,1017.75
2017-07-21T09:34:50.624Z,1017.75
2017-07-21T09:35:52.471Z,1017.70
2017-07-21T09:36:54.284Z,1017.66
2017-07-21T09:37:56.167Z,1017.68
2017-07-21T09:38:58.063Z,1017.69
2017-07-21T09:39:59.943Z,1017.66
2017-07-21T09:41:14.113Z,1017.69
2017-07-21T09:42:15.993Z,1017.63
2017-07-21T09:43:17.870Z,1017.59
2017-07-21T09:44:19.748Z,1017.61
2017-07-21T09:45:21.571Z,1017.66
2017-07-21T09:46:23.417Z,1017.67
2017-07-21T09:47:25.321Z,1017.71
2017-07-21T09:48:27.190Z,1017.77
2017-07-21T09:49:29.068Z,1017.84
2017-07-21T09:50:43.221Z,1017.89
2017-07-21T09:51:45.098Z,1017.82
2017-07-21T09:52:47.014Z,1017.77
2017-07-21T09:53:48.922Z,1017.80
2017-07-21T09:54:50.764Z,1017.84
2017-07-21T09:55:52.579Z,1017.84
2017-07-21T09:56:54.483Z,1017.86
2017-07-21T09:57:56.366Z,1017.78
2017-07-21T09:58:58.248Z,1017.80
2017-07-21T10:00:12.428Z,1017.71
2017-07-21T10:01:14.307Z,1017.73
2017-07-21T10:02:16.208Z,1017.75
2017-07-21T10:03:18.089Z,1017.64
2017-07-21T10:04:19.933Z,1017.65
2017-07-21T10:05:21.754Z,1017.60
2017-07-21T10:06:23.656Z,1017.61
2017-07-21T10:07:25.537Z,1017.60
2017-07-21T10:08:27.412Z,1017.58
2017-07-21T10:09:41.562Z,1017.55
2017-07-21T10:10:43.442Z,1017.53
2017-07-21T10:11:45.321Z,1017.50
2017-07-21T10:12:47.199Z,1017.52
2017-07-21T10:13:49.049Z,1017.54
2017-07-21T10:14:50.888Z,1017.50
2017-07-21T10:15:52.769Z,1017.39
2017-07-21T10:16:54.674Z,1017.45
2017-07-21T10:17:56.575Z,1017.45
2017-07-21T10:19:10.730Z,1017.51
2017-07-21T10:20:12.612Z,1017.52
2017-07-21T10:21:14.515Z,1017.57
2017-07-21T10:22:16.417Z,1017.54
2017-07-21T10:23:18.235Z,1017.42
2017-07-21T10:24:20.059Z,1017.39
2017-07-21T10:25:21.962Z,1017.37
2017-07-21T10:26:23.845Z,1017.32
2017-07-21T10:27:25.742Z,1017.30
2017-07-21T10:28:39.896Z,1017.30
2017-07-21T10:29:41.778Z,1017.32
2017-07-21T10:30:43.678Z,1017.30
2017-07-21T10:31:45.563Z,1017.28
2017-07-21T10:32:47.404Z,1017.25
2017-07-21T10:33:49.224Z,1017.24
2017-07-21T10:34:51.129Z,1017.21
2017-07-21T10:35:53.032Z,1017.16
2017-07-21T10:36:54.930Z,1017.14
2017-07-21T10:38:09.083Z,1017.15
2017-07-21T10:39:10.958Z,1017.17
2017-07-21T10:40:12.838Z,1017.25
2017-07-21T10:41:14.716Z,1017.24
2017-07-21T10:42:16.544Z,1017.22
2017-07-21T10:43:18.378Z,1017.24
2017-07-21T10:44:20.256Z,1017.28
2017-07-21T10:45:22.139Z,1017.29
2017-07-21T10:46:24.020Z,1017.29
2017-07-21T10:47:38.168Z,1017.24
2017-07-21T10:48:40.067Z,1017.24
2017-07-21T10:49:41.949Z,1017.31
2017-07-21T10:50:43.847Z,1017.39
2017-07-21T10:51:45.670Z,1017.46
2017-07-21T10:52:47.483Z,1017.52
2017-07-21T10:53:49.365Z,1017.46
2017-07-21T10:54:51.245Z,1017.51
2017-07-21T10:55:53.166Z,1017.53
2017-07-21T10:57:07.343Z,1017.49
2017-07-21T10:58:09.244Z,1017.51
2017-07-21T10:59:11.124Z,1017.42
2017-07-21T11:00:13.007Z,1017.43
2017-07-21T11:01:14.846Z,1017.42
2017-07-21T11:02:16.670Z,1017.42
2017-07-21T11:03:18.576Z,1017.41
2017-07-21T11:04:20.447Z,1017.41
2017-07-21T11:05:22.330Z,1017.37
2017-07-21T11:06:36.512Z,1017.40
2017-07-21T11:07:38.417Z,1017.41
2017-07-21T11:08:40.319Z,1017.39
2017-07-21T11:09:42.200Z,1017.39
2017-07-21T11:10:44.067Z,1017.36
2017-07-21T11:11:45.856Z,1017.39
2017-07-21T11:12:47.740Z,1017.30
2017-07-21T11:13:49.641Z,1017.24
2017-07-21T11:14:51.522Z,1017.24
2017-07-21T11:16:05.674Z,1017.11
2017-07-21T11:17:07.554Z,1017.06
2017-07-21T11:18:09.459Z,1016.97
2017-07-21T11:19:11.358Z,1016.95
2017-07-21T11:20:13.183Z,1016.90
2017-07-21T11:21:15.003Z,1016.90
2017-07-21T11:22:16.881Z,1016.91
2017-07-21T11:23:18.764Z,1016.84
2017-07-21T11:24:20.662Z,1016.87
2017-07-21T11:25:34.811Z,1016.94
2017-07-21T11:26:36.689Z,1016.85
2017-07-21T11:27:38.591Z,1016.91
2017-07-21T11:28:40.474Z,1016.85
2017-07-21T11:29:42.310Z,1016.85
2017-07-21T11:30:44.132Z,1016.91
2017-07-21T11:31:46.005Z,1016.92
2017-07-21T11:32:47.885Z,1016.97
2017-07-21T11:33:49.809Z,1016.96
2017-07-21T11:35:03.959Z,1016.97
2017-07-21T11:36:05.836Z,1017.04
2017-07-21T11:37:07.734Z,1017.08
2017-07-21T11:38:09.618Z,1017.17
2017-07-21T11:39:11.464Z,1017.22
2017-07-21T11:40:13.302Z,1017.24
2017-07-21T11:41:15.186Z,1017.26
2017-07-21T11:42:17.087Z,1017.22
2017-07-21T11:43:18.967Z,1017.23
2017-07-21T11:44:33.141Z,1017.16
2017-07-21T11:45:35.018Z,1017.13
2017-07-21T11:46:36.897Z,1017.14
2017-07-21T11:47:38.798Z,1017.10
2017-07-21T11:48:40.615Z,1017.13
2017-07-21T11:49:42.437Z,1017.11
2017-07-21T11:50:44.340Z,1017.07
2017-07-21T11:51:46.246Z,1017.06
2017-07-21T11:52:48.144Z,1017.00
2017-07-21T11:54:02.299Z,1017.07
2017-07-21T11:55:04.204Z,1017.04
2017-07-21T11:56:06.108Z,1017.02
2017-07-21T11:57:08.006Z,1016.97
2017-07-21T11:58:09.825Z,1016.98
2017-07-21T11:59:11.646Z,1017.09
2017-07-21T12:00:13.551Z,1017.03
2017-07-21T12:01:15.447Z,1017.08
2017-07-21T12:02:17.327Z,1017.06
2017-07-21T12:03:31.478Z,1017.06
2017-07-21T12:04:33.360Z,1017.03
2017-07-21T12:05:35.267Z,1016.98
2017-07-21T12:06:37.172Z,1016.96
2017-07-21T12:07:39.012Z,1016.94
2017-07-21T12:08:40.836Z,1016.92
2017-07-21T12:09:42.736Z,1016.91
2017-07-21T12:10:44.636Z,1016.96
2017-07-21T12:11:46.517Z,1016.90
2017-07-21T12:13:00.700Z,1016.90
2017-07-21T12:14:02.601Z,1016.89
2017-07-21T12:15:04.481Z,1016.90
2017-07-21T12:16:06.361Z,1016.88
2017-07-21T12:17:08.201Z,1016.90
2017-07-21T12:18:10.023Z,1016.91
2017-07-21T12:19:11.907Z,1016.98
2017-07-21T12:20:13.776Z,1016.93
2017-07-21T12:21:15.652Z,1016.89
2017-07-21T12:22:29.810Z,1016.93
2017-07-21T12:23:31.689Z,1016.95
2017-07-21T12:24:33.616Z,1017.00
2017-07-21T12:25:35.535Z,1016.98
2017-07-21T12:26:37.359Z,1016.94
2017-07-21T12:27:39.205Z,1016.93
2017-07-21T12:28:41.101Z,1016.90
2017-07-21T12:29:42.982Z,1016.98
2017-07-21T12:30:44.857Z,1017.02
2017-07-21T12:31:59.026Z,1017.07
2017-07-21T12:33:00.906Z,1017.05
2017-07-21T12:34:02.785Z,1017.05
2017-07-21T12:35:04.662Z,1017.05
2017-07-21T12:36:06.506Z,1017.07
2017-07-21T12:37:08.322Z,1017.07
2017-07-21T12:38:10.200Z,1017.13
2017-07-21T12:39:12.083Z,1017.05
2017-07-21T12:40:13.992Z,1017.03
2017-07-21T12:41:28.163Z,1017.06
2017-07-21T12:42:30.038Z,1016.95
2017-07-21T12:43:31.917Z,1017.00
2017-07-21T12:44:33.796Z,1016.97